sensor_id;sensor_type;location;lat;lon;timestamp;P1;durP1;ratioP1;P2;durP2;ratioP2
49123;SDS011;48506;48.202;16.274;2024-03-23T00:56:18;9.63;;;5.38;;
49123;SDS011;48506;48.202;16.274;2024-03-23T00:58:43;8.20;;;4.40;;
49123;SDS011;48506;48.202;16.274;2024-03-23T01:01:09;8.30;;;5.13;;
49123;SDS011;48506;48.202;16.274;2024-03-23T01:03:35;9.07;;;5.32;;
49123;SDS011;48506;48.202;16.274;2024-03-23T01:06:01;8.70;;;5.25;;
49123;SDS011;48506;48.202;16.274;2024-03-23T01:08:28;7.93;;;5.32;;
49123;SDS011;48506;48.202;16.274;2024-03-23T01:10:57;9.32;;;5.75;;
49123;SDS011;48506;48.202;16.274;2024-03-23T01:13:24;7.80;;;5.03;;
49123;SDS011;48506;48.202;16.274;2024-03-23T01:15:51;8.70;;;4.88;;
49123;SDS011;48506;48.202;16.274;2024-03-23T01:18:17;8.48;;;5.00;;
49123;SDS011;48506;48.202;16.274;2024-03-23T01:20:44;8.52;;;5.75;;
49123;SDS011;48506;48.202;16.274;2024-03-23T01:23:11;10.50;;;5.72;;
49123;SDS011;48506;48.202;16.274;2024-03-23T01:25:37;7.35;;;4.70;;
49123;SDS011;48506;48.202;16.274;2024-03-23T01:28:03;10.80;;;5.95;;
49123;SDS011;48506;48.202;16.274;2024-03-23T01:30:31;7.00;;;4.70;;
49123;SDS011;48506;48.202;16.274;2024-03-23T01:32:58;8.52;;;5.10;;
49123;SDS011;48506;48.202;16.274;2024-03-23T01:35:24;9.00;;;5.53;;
49123;SDS011;48506;48.202;16.274;2024-03-23T01:37:50;7.07;;;5.10;;
49123;SDS011;48506;48.202;16.274;2024-03-23T01:40:18;8.35;;;5.47;;
49123;SDS011;48506;48.202;16.274;2024-03-23T01:42:59;9.93;;;5.00;;
49123;SDS011;48506;48.202;16.274;2024-03-23T01:45:33;7.13;;;4.25;;
49123;SDS011;48506;48.202;16.274;2024-03-23T01:48:00;8.65;;;5.25;;
49123;SDS011;48506;48.202;16.274;2024-03-23T01:50:28;7.55;;;4.18;;
49123;SDS011;48506;48.202;16.274;2024-03-23T01:52:59;8.20;;;4.53;;
49123;SDS011;48506;48.202;16.274;2024-03-23T01:55:27;7.57;;;4.78;;
49123;SDS011;48506;48.202;16.274;2024-03-23T01:57:56;6.57;;;4.85;;
49123;SDS011;48506;48.202;16.274;2024-03-23T02:00:22;6.03;;;5.00;;
49123;SDS011;48506;48.202;16.274;2024-03-23T02:02:49;5.85;;;4.85;;
49123;SDS011;48506;48.202;16.274;2024-03-23T02:05:15;6.60;;;4.28;;
49123;SDS011;48506;48.202;16.274;2024-03-23T02:07:41;10.40;;;5.13;;
49123;SDS011;48506;48.202;16.274;2024-03-23T02:10:09;6.18;;;4.63;;
49123;SDS011;48506;48.202;16.274;2024-03-23T02:12:36;6.30;;;5.13;;
49123;SDS011;48506;48.202;16.274;2024-03-23T02:15:02;6.55;;;4.70;;
49123;SDS011;48506;48.202;16.274;2024-03-23T02:17:33;7.72;;;4.28;;
49123;SDS011;48506;48.202;16.274;2024-03-23T02:20:00;7.18;;;4.53;;
49123;SDS011;48506;48.202;16.274;2024-03-23T02:22:36;6.28;;;4.72;;
49123;SDS011;48506;48.202;16.274;2024-03-23T02:25:04;5.65;;;4.90;;
49123;SDS011;48506;48.202;16.274;2024-03-23T02:27:31;6.43;;;5.05;;
49123;SDS011;48506;48.202;16.274;2024-03-23T02:29:58;7.28;;;5.57;;
49123;SDS011;48506;48.202;16.274;2024-03-23T02:32:24;7.75;;;5.60;;
49123;SDS011;48506;48.202;16.274;2024-03-23T02:34:50;8.02;;;5.38;;
49123;SDS011;48506;48.202;16.274;2024-03-23T02:37:16;6.18;;;4.78;;
49123;SDS011;48506;48.202;16.274;2024-03-23T02:39:42;7.78;;;5.70;;
49123;SDS011;48506;48.202;16.274;2024-03-23T02:42:07;6.50;;;5.10;;
49123;SDS011;48506;48.202;16.274;2024-03-23T02:44:33;7.13;;;4.47;;
49123;SDS011;48506;48.202;16.274;2024-03-23T02:47:00;5.85;;;5.10;;
49123;SDS011;48506;48.202;16.274;2024-03-23T02:49:26;8.07;;;5.00;;
49123;SDS011;48506;48.202;16.274;2024-03-23T02:51:52;6.78;;;4.75;;
49123;SDS011;48506;48.202;16.274;2024-03-23T02:54:18;6.07;;;4.57;;
49123;SDS011;48506;48.202;16.274;2024-03-23T02:56:44;7.00;;;4.65;;
49123;SDS011;48506;48.202;16.274;2024-03-23T02:59:10;7.38;;;5.30;;
49123;SDS011;48506;48.202;16.274;2024-03-23T03:01:36;9.35;;;5.10;;
49123;SDS011;48506;48.202;16.274;2024-03-23T03:04:02;7.32;;;5.35;;
49123;SDS011;48506;48.202;16.274;2024-03-23T03:06:29;7.40;;;5.35;;
49123;SDS011;48506;48.202;16.274;2024-03-23T03:08:55;9.48;;;5.72;;
49123;SDS011;48506;48.202;16.274;2024-03-23T03:11:21;7.22;;;4.97;;
49123;SDS011;48506;48.202;16.274;2024-03-23T03:13:47;6.88;;;5.00;;
49123;SDS011;48506;48.202;16.274;2024-03-23T03:16:13;7.88;;;5.50;;
49123;SDS011;48506;48.202;16.274;2024-03-23T03:18:39;6.57;;;5.57;;
49123;SDS011;48506;48.202;16.274;2024-03-23T03:21:06;10.55;;;5.72;;
49123;SDS011;48506;48.202;16.274;2024-03-23T03:23:38;9.10;;;5.60;;
49123;SDS011;48506;48.202;16.274;2024-03-23T03:26:05;9.00;;;6.03;;
49123;SDS011;48506;48.202;16.274;2024-03-23T03:28:31;8.02;;;5.30;;
49123;SDS011;48506;48.202;16.274;2024-03-23T03:30:58;10.43;;;5.13;;
49123;SDS011;48506;48.202;16.274;2024-03-23T03:33:26;9.25;;;5.78;;
49123;SDS011;48506;48.202;16.274;2024-03-23T03:35:53;8.00;;;5.13;;
49123;SDS011;48506;48.202;16.274;2024-03-23T03:38:19;6.97;;;5.47;;
49123;SDS011;48506;48.202;16.274;2024-03-23T03:40:45;6.90;;;5.07;;
49123;SDS011;48506;48.202;16.274;2024-03-23T03:43:11;8.32;;;5.57;;
49123;SDS011;48506;48.202;16.274;2024-03-23T03:45:37;8.48;;;5.25;;
49123;SDS011;48506;48.202;16.274;2024-03-23T03:48:03;10.88;;;6.40;;
49123;SDS011;48506;48.202;16.274;2024-03-23T03:50:29;9.15;;;5.32;;
49123;SDS011;48506;48.202;16.274;2024-03-23T03:52:55;11.15;;;5.40;;
49123;SDS011;48506;48.202;16.274;2024-03-23T03:55:21;9.65;;;5.57;;
49123;SDS011;48506;48.202;16.274;2024-03-23T03:57:47;6.40;;;4.80;;
49123;SDS011;48506;48.202;16.274;2024-03-23T04:00:14;7.00;;;4.65;;
49123;SDS011;48506;48.202;16.274;2024-03-23T04:02:41;8.25;;;5.40;;
49123;SDS011;48506;48.202;16.274;2024-03-23T04:05:07;7.70;;;5.63;;
49123;SDS011;48506;48.202;16.274;2024-03-23T04:07:33;9.30;;;5.18;;
49123;SDS011;48506;48.202;16.274;2024-03-23T04:09:59;7.72;;;6.05;;
49123;SDS011;48506;48.202;16.274;2024-03-23T04:12:25;14.13;;;6.82;;
49123;SDS011;48506;48.202;16.274;2024-03-23T04:14:51;8.43;;;4.70;;
49123;SDS011;48506;48.202;16.274;2024-03-23T04:17:17;7.97;;;5.25;;
49123;SDS011;48506;48.202;16.274;2024-03-23T04:19:43;8.50;;;5.60;;
49123;SDS011;48506;48.202;16.274;2024-03-23T04:22:10;6.25;;;5.07;;
49123;SDS011;48506;48.202;16.274;2024-03-23T04:24:35;7.35;;;5.50;;
49123;SDS011;48506;48.202;16.274;2024-03-23T04:27:02;7.72;;;5.25;;
49123;SDS011;48506;48.202;16.274;2024-03-23T04:29:28;9.52;;;5.80;;
49123;SDS011;48506;48.202;16.274;2024-03-23T04:31:54;7.15;;;4.53;;
49123;SDS011;48506;48.202;16.274;2024-03-23T04:34:20;6.60;;;5.30;;
49123;SDS011;48506;48.202;16.274;2024-03-23T04:36:47;7.50;;;5.00;;
49123;SDS011;48506;48.202;16.274;2024-03-23T04:39:13;8.05;;;5.03;;
49123;SDS011;48506;48.202;16.274;2024-03-23T04:41:39;9.43;;;5.45;;
49123;SDS011;48506;48.202;16.274;2024-03-23T04:44:05;9.40;;;5.53;;
49123;SDS011;48506;48.202;16.274;2024-03-23T04:46:31;7.80;;;5.20;;
49123;SDS011;48506;48.202;16.274;2024-03-23T04:48:57;8.82;;;5.25;;
49123;SDS011;48506;48.202;16.274;2024-03-23T04:51:23;6.72;;;5.72;;
49123;SDS011;48506;48.202;16.274;2024-03-23T04:53:49;9.50;;;4.65;;
49123;SDS011;48506;48.202;16.274;2024-03-23T04:56:15;8.27;;;5.13;;
49123;SDS011;48506;48.202;16.274;2024-03-23T04:58:43;6.88;;;4.75;;
49123;SDS011;48506;48.202;16.274;2024-03-23T05:01:09;6.80;;;5.28;;
49123;SDS011;48506;48.202;16.274;2024-03-23T05:03:35;10.32;;;5.95;;
49123;SDS011;48506;48.202;16.274;2024-03-23T05:06:02;9.20;;;5.47;;
49123;SDS011;48506;48.202;16.274;2024-03-23T05:08:28;8.77;;;5.82;;
49123;SDS011;48506;48.202;16.274;2024-03-23T05:10:54;12.88;;;5.38;;
49123;SDS011;48506;48.202;16.274;2024-03-23T05:13:19;6.03;;;4.75;;
49123;SDS011;48506;48.202;16.274;2024-03-23T05:15:50;9.68;;;6.03;;
49123;SDS011;48506;48.202;16.274;2024-03-23T05:18:20;8.80;;;5.00;;
49123;SDS011;48506;48.202;16.274;2024-03-23T05:20:46;8.02;;;6.28;;
49123;SDS011;48506;48.202;16.274;2024-03-23T05:23:13;8.52;;;5.70;;
49123;SDS011;48506;48.202;16.274;2024-03-23T05:25:39;6.50;;;5.05;;
49123;SDS011;48506;48.202;16.274;2024-03-23T05:28:05;11.00;;;6.15;;
49123;SDS011;48506;48.202;16.274;2024-03-23T05:30:31;7.57;;;5.65;;
49123;SDS011;48506;48.202;16.274;2024-03-23T05:32:58;10.55;;;5.18;;
49123;SDS011;48506;48.202;16.274;2024-03-23T05:35:24;6.15;;;4.82;;
49123;SDS011;48506;48.202;16.274;2024-03-23T05:37:50;7.47;;;5.40;;
49123;SDS011;48506;48.202;16.274;2024-03-23T05:40:16;6.35;;;5.55;;
49123;SDS011;48506;48.202;16.274;2024-03-23T05:42:42;13.00;;;5.47;;
49123;SDS011;48506;48.202;16.274;2024-03-23T05:45:08;11.10;;;5.63;;
49123;SDS011;48506;48.202;16.274;2024-03-23T05:47:34;15.50;;;5.65;;
49123;SDS011;48506;48.202;16.274;2024-03-23T05:50:00;14.38;;;5.68;;
49123;SDS011;48506;48.202;16.274;2024-03-23T05:52:27;10.00;;;5.57;;
49123;SDS011;48506;48.202;16.274;2024-03-23T05:54:52;5.70;;;4.13;;
49123;SDS011;48506;48.202;16.274;2024-03-23T05:57:19;10.93;;;5.43;;
49123;SDS011;48506;48.202;16.274;2024-03-23T05:59:45;12.35;;;5.47;;
49123;SDS011;48506;48.202;16.274;2024-03-23T06:02:11;8.23;;;5.50;;
49123;SDS011;48506;48.202;16.274;2024-03-23T06:04:37;6.68;;;4.88;;
49123;SDS011;48506;48.202;16.274;2024-03-23T06:07:03;7.00;;;4.82;;
49123;SDS011;48506;48.202;16.274;2024-03-23T06:09:31;6.43;;;4.72;;
49123;SDS011;48506;48.202;16.274;2024-03-23T06:11:57;13.02;;;6.20;;
49123;SDS011;48506;48.202;16.274;2024-03-23T06:14:23;7.80;;;5.10;;
49123;SDS011;48506;48.202;16.274;2024-03-23T06:16:49;14.38;;;5.65;;
49123;SDS011;48506;48.202;16.274;2024-03-23T06:19:15;10.38;;;6.00;;
49123;SDS011;48506;48.202;16.274;2024-03-23T06:21:44;10.10;;;6.63;;
49123;SDS011;48506;48.202;16.274;2024-03-23T06:24:11;8.82;;;5.30;;
49123;SDS011;48506;48.202;16.274;2024-03-23T06:26:37;10.50;;;5.78;;
49123;SDS011;48506;48.202;16.274;2024-03-23T06:29:03;10.65;;;6.55;;
49123;SDS011;48506;48.202;16.274;2024-03-23T06:31:30;8.40;;;5.85;;
49123;SDS011;48506;48.202;16.274;2024-03-23T06:33:56;8.80;;;5.72;;
49123;SDS011;48506;48.202;16.274;2024-03-23T06:36:22;12.60;;;6.47;;
49123;SDS011;48506;48.202;16.274;2024-03-23T06:38:48;10.65;;;6.03;;
49123;SDS011;48506;48.202;16.274;2024-03-23T06:41:14;11.93;;;5.55;;
49123;SDS011;48506;48.202;16.274;2024-03-23T06:43:40;10.32;;;6.30;;
49123;SDS011;48506;48.202;16.274;2024-03-23T06:46:06;8.68;;;5.93;;
49123;SDS011;48506;48.202;16.274;2024-03-23T06:48:32;7.78;;;6.07;;
49123;SDS011;48506;48.202;16.274;2024-03-23T06:50:58;9.30;;;7.07;;
49123;SDS011;48506;48.202;16.274;2024-03-23T06:53:24;9.63;;;6.57;;
49123;SDS011;48506;48.202;16.274;2024-03-23T06:55:50;10.07;;;6.55;;
49123;SDS011;48506;48.202;16.274;2024-03-23T06:58:18;9.38;;;6.57;;
49123;SDS011;48506;48.202;16.274;2024-03-23T07:00:45;10.73;;;6.55;;
49123;SDS011;48506;48.202;16.274;2024-03-23T07:03:11;12.93;;;7.05;;
49123;SDS011;48506;48.202;16.274;2024-03-23T07:05:37;11.38;;;6.30;;
49123;SDS011;48506;48.202;16.274;2024-03-23T07:08:03;8.07;;;6.05;;
49123;SDS011;48506;48.202;16.274;2024-03-23T07:10:30;8.80;;;6.50;;
49123;SDS011;48506;48.202;16.274;2024-03-23T07:12:56;9.35;;;6.97;;
49123;SDS011;48506;48.202;16.274;2024-03-23T07:15:21;9.57;;;6.38;;
49123;SDS011;48506;48.202;16.274;2024-03-23T07:17:47;10.05;;;6.20;;
49123;SDS011;48506;48.202;16.274;2024-03-23T07:20:13;10.32;;;6.72;;
49123;SDS011;48506;48.202;16.274;2024-03-23T07:22:39;12.77;;;7.47;;
49123;SDS011;48506;48.202;16.274;2024-03-23T07:25:05;10.25;;;6.72;;
49123;SDS011;48506;48.202;16.274;2024-03-23T07:27:32;12.25;;;6.70;;
49123;SDS011;48506;48.202;16.274;2024-03-23T07:29:59;9.80;;;6.47;;
49123;SDS011;48506;48.202;16.274;2024-03-23T07:32:26;8.15;;;6.57;;
49123;SDS011;48506;48.202;16.274;2024-03-23T07:34:52;9.75;;;6.68;;
49123;SDS011;48506;48.202;16.274;2024-03-23T07:37:18;9.65;;;6.22;;
49123;SDS011;48506;48.202;16.274;2024-03-23T07:39:44;8.95;;;6.45;;
49123;SDS011;48506;48.202;16.274;2024-03-23T07:42:10;10.63;;;5.90;;
49123;SDS011;48506;48.202;16.274;2024-03-23T07:44:36;7.95;;;6.40;;
49123;SDS011;48506;48.202;16.274;2024-03-23T07:47:05;12.52;;;5.75;;
49123;SDS011;48506;48.202;16.274;2024-03-23T07:49:32;13.57;;;6.25;;
49123;SDS011;48506;48.202;16.274;2024-03-23T07:51:58;8.25;;;5.35;;
49123;SDS011;48506;48.202;16.274;2024-03-23T07:54:24;8.48;;;5.03;;
49123;SDS011;48506;48.202;16.274;2024-03-23T07:56:50;7.90;;;5.15;;
49123;SDS011;48506;48.202;16.274;2024-03-23T07:59:16;6.63;;;5.10;;
49123;SDS011;48506;48.202;16.274;2024-03-23T08:01:43;11.18;;;5.75;;
49123;SDS011;48506;48.202;16.274;2024-03-23T08:04:09;9.98;;;5.47;;
49123;SDS011;48506;48.202;16.274;2024-03-23T08:06:35;5.03;;;4.53;;
49123;SDS011;48506;48.202;16.274;2024-03-23T08:09:01;7.70;;;5.30;;
49123;SDS011;48506;48.202;16.274;2024-03-23T08:11:28;5.30;;;4.07;;
49123;SDS011;48506;48.202;16.274;2024-03-23T08:13:56;5.78;;;5.18;;
49123;SDS011;48506;48.202;16.274;2024-03-23T08:16:23;6.47;;;3.97;;
49123;SDS011;48506;48.202;16.274;2024-03-23T08:18:52;9.15;;;5.35;;
49123;SDS011;48506;48.202;16.274;2024-03-23T08:21:20;5.25;;;4.75;;
49123;SDS011;48506;48.202;16.274;2024-03-23T08:23:46;6.35;;;4.82;;
49123;SDS011;48506;48.202;16.274;2024-03-23T08:26:14;9.95;;;4.78;;
49123;SDS011;48506;48.202;16.274;2024-03-23T08:28:41;7.70;;;5.77;;
49123;SDS011;48506;48.202;16.274;2024-03-23T08:31:08;6.88;;;5.75;;
49123;SDS011;48506;48.202;16.274;2024-03-23T08:33:35;6.32;;;4.80;;
49123;SDS011;48506;48.202;16.274;2024-03-23T08:36:07;7.88;;;5.18;;
49123;SDS011;48506;48.202;16.274;2024-03-23T08:38:34;7.32;;;5.55;;
49123;SDS011;48506;48.202;16.274;2024-03-23T08:41:01;7.97;;;4.97;;
49123;SDS011;48506;48.202;16.274;2024-03-23T08:43:28;12.23;;;5.72;;
49123;SDS011;48506;48.202;16.274;2024-03-23T08:48:35;7.38;;;6.15;;
49123;SDS011;48506;48.202;16.274;2024-03-23T08:51:03;9.85;;;5.88;;
49123;SDS011;48506;48.202;16.274;2024-03-23T08:53:31;9.63;;;6.43;;
49123;SDS011;48506;48.202;16.274;2024-03-23T08:55:58;11.00;;;6.82;;
49123;SDS011;48506;48.202;16.274;2024-03-23T08:58:28;12.50;;;9.18;;
49123;SDS011;48506;48.202;16.274;2024-03-23T09:00:56;12.65;;;8.70;;
49123;SDS011;48506;48.202;16.274;2024-03-23T09:03:28;10.88;;;8.35;;
49123;SDS011;48506;48.202;16.274;2024-03-23T09:05:55;10.05;;;8.23;;
49123;SDS011;48506;48.202;16.274;2024-03-23T09:08:21;12.35;;;7.05;;
49123;SDS011;48506;48.202;16.274;2024-03-23T09:10:47;9.80;;;7.13;;
49123;SDS011;48506;48.202;16.274;2024-03-23T09:13:13;8.10;;;6.45;;
49123;SDS011;48506;48.202;16.274;2024-03-23T09:15:46;15.77;;;6.95;;
49123;SDS011;48506;48.202;16.274;2024-03-23T09:18:14;9.70;;;6.50;;
49123;SDS011;48506;48.202;16.274;2024-03-23T09:20:40;9.40;;;5.95;;
49123;SDS011;48506;48.202;16.274;2024-03-23T09:23:07;11.85;;;4.20;;
49123;SDS011;48506;48.202;16.274;2024-03-23T09:25:36;6.65;;;4.07;;
49123;SDS011;48506;48.202;16.274;2024-03-23T09:28:05;6.35;;;3.58;;
49123;SDS011;48506;48.202;16.274;2024-03-23T09:30:34;5.53;;;4.10;;
49123;SDS011;48506;48.202;16.274;2024-03-23T09:33:02;5.75;;;3.80;;
49123;SDS011;48506;48.202;16.274;2024-03-23T09:35:29;5.00;;;3.55;;
49123;SDS011;48506;48.202;16.274;2024-03-23T09:37:55;4.38;;;3.65;;
49123;SDS011;48506;48.202;16.274;2024-03-23T09:40:22;5.80;;;3.95;;
49123;SDS011;48506;48.202;16.274;2024-03-23T09:42:51;6.47;;;3.40;;
49123;SDS011;48506;48.202;16.274;2024-03-23T09:45:17;4.00;;;3.25;;
49123;SDS011;48506;48.202;16.274;2024-03-23T09:47:46;7.93;;;4.05;;
49123;SDS011;48506;48.202;16.274;2024-03-23T09:50:14;5.05;;;3.28;;
49123;SDS011;48506;48.202;16.274;2024-03-23T09:52:41;3.83;;;3.17;;
49123;SDS011;48506;48.202;16.274;2024-03-23T09:55:07;5.43;;;3.15;;
49123;SDS011;48506;48.202;16.274;2024-03-23T09:57:35;4.28;;;3.28;;
49123;SDS011;48506;48.202;16.274;2024-03-23T10:00:01;4.55;;;2.45;;
49123;SDS011;48506;48.202;16.274;2024-03-23T10:02:28;4.82;;;3.00;;
49123;SDS011;48506;48.202;16.274;2024-03-23T10:04:54;3.10;;;2.78;;
49123;SDS011;48506;48.202;16.274;2024-03-23T10:07:21;5.78;;;2.50;;
49123;SDS011;48506;48.202;16.274;2024-03-23T10:09:47;3.70;;;2.70;;
49123;SDS011;48506;48.202;16.274;2024-03-23T10:12:17;5.13;;;2.35;;
49123;SDS011;48506;48.202;16.274;2024-03-23T10:14:47;6.30;;;2.72;;
49123;SDS011;48506;48.202;16.274;2024-03-23T10:17:20;4.75;;;2.15;;
49123;SDS011;48506;48.202;16.274;2024-03-23T10:19:51;3.88;;;1.75;;
49123;SDS011;48506;48.202;16.274;2024-03-23T10:22:19;9.70;;;2.10;;
49123;SDS011;48506;48.202;16.274;2024-03-23T10:24:46;4.72;;;1.70;;
49123;SDS011;48506;48.202;16.274;2024-03-23T10:27:17;5.20;;;1.90;;
49123;SDS011;48506;48.202;16.274;2024-03-23T10:29:44;2.63;;;1.65;;
49123;SDS011;48506;48.202;16.274;2024-03-23T10:32:15;3.15;;;1.75;;
49123;SDS011;48506;48.202;16.274;2024-03-23T10:34:42;3.20;;;2.42;;
49123;SDS011;48506;48.202;16.274;2024-03-23T10:37:09;2.92;;;1.90;;
49123;SDS011;48506;48.202;16.274;2024-03-23T10:39:39;3.10;;;1.20;;
49123;SDS011;48506;48.202;16.274;2024-03-23T10:42:07;2.30;;;1.40;;
49123;SDS011;48506;48.202;16.274;2024-03-23T10:44:35;4.28;;;1.70;;
49123;SDS011;48506;48.202;16.274;2024-03-23T10:47:02;3.88;;;1.30;;
49123;SDS011;48506;48.202;16.274;2024-03-23T10:49:30;2.50;;;1.17;;
49123;SDS011;48506;48.202;16.274;2024-03-23T10:52:01;2.53;;;1.27;;
49123;SDS011;48506;48.202;16.274;2024-03-23T10:54:29;4.47;;;1.70;;
49123;SDS011;48506;48.202;16.274;2024-03-23T10:56:57;6.05;;;1.42;;
49123;SDS011;48506;48.202;16.274;2024-03-23T10:59:29;3.45;;;1.27;;
49123;SDS011;48506;48.202;16.274;2024-03-23T11:01:57;2.03;;;1.40;;
49123;SDS011;48506;48.202;16.274;2024-03-23T11:04:34;3.90;;;1.30;;
49123;SDS011;48506;48.202;16.274;2024-03-23T11:07:47;3.78;;;1.65;;
49123;SDS011;48506;48.202;16.274;2024-03-23T11:09:57;2.35;;;1.40;;
49123;SDS011;48506;48.202;16.274;2024-03-23T11:15:04;2.90;;;1.38;;
49123;SDS011;48506;48.202;16.274;2024-03-23T11:17:31;4.90;;;1.77;;
49123;SDS011;48506;48.202;16.274;2024-03-23T11:19:58;5.43;;;1.45;;
49123;SDS011;48506;48.202;16.274;2024-03-23T11:25:24;6.90;;;1.45;;
49123;SDS011;48506;48.202;16.274;2024-03-23T11:27:52;3.08;;;1.33;;
49123;SDS011;48506;48.202;16.274;2024-03-23T11:30:19;1.45;;;1.20;;
49123;SDS011;48506;48.202;16.274;2024-03-23T11:32:50;4.82;;;1.40;;
49123;SDS011;48506;48.202;16.274;2024-03-23T11:35:28;3.25;;;1.42;;
49123;SDS011;48506;48.202;16.274;2024-03-23T11:38:11;3.03;;;1.40;;
49123;SDS011;48506;48.202;16.274;2024-03-23T11:40:43;4.65;;;1.52;;
49123;SDS011;48506;48.202;16.274;2024-03-23T11:43:14;3.58;;;1.48;;
49123;SDS011;48506;48.202;16.274;2024-03-23T11:45:44;1.88;;;1.30;;
49123;SDS011;48506;48.202;16.274;2024-03-23T11:48:13;4.95;;;1.33;;
49123;SDS011;48506;48.202;16.274;2024-03-23T11:50:43;3.38;;;1.35;;
49123;SDS011;48506;48.202;16.274;2024-03-23T11:53:17;7.00;;;1.88;;
49123;SDS011;48506;48.202;16.274;2024-03-23T11:55:53;1.98;;;1.42;;
49123;SDS011;48506;48.202;16.274;2024-03-23T11:58:24;1.70;;;1.60;;
49123;SDS011;48506;48.202;16.274;2024-03-23T12:00:58;4.68;;;1.20;;
49123;SDS011;48506;48.202;16.274;2024-03-23T12:03:25;5.93;;;2.05;;
49123;SDS011;48506;48.202;16.274;2024-03-23T12:05:58;5.93;;;1.65;;
49123;SDS011;48506;48.202;16.274;2024-03-23T12:08:30;3.83;;;1.50;;
49123;SDS011;48506;48.202;16.274;2024-03-23T12:18:41;4.47;;;2.05;;
49123;SDS011;48506;48.202;16.274;2024-03-23T12:21:08;2.67;;;1.60;;
49123;SDS011;48506;48.202;16.274;2024-03-23T12:23:35;3.72;;;1.50;;
49123;SDS011;48506;48.202;16.274;2024-03-23T12:26:01;3.25;;;1.42;;
49123;SDS011;48506;48.202;16.274;2024-03-23T12:28:27;3.75;;;1.48;;
49123;SDS011;48506;48.202;16.274;2024-03-23T12:30:53;1.60;;;1.40;;
49123;SDS011;48506;48.202;16.274;2024-03-23T12:33:19;2.17;;;1.48;;
49123;SDS011;48506;48.202;16.274;2024-03-23T12:35:46;3.92;;;1.55;;
49123;SDS011;48506;48.202;16.274;2024-03-23T12:38:13;2.45;;;1.20;;
49123;SDS011;48506;48.202;16.274;2024-03-23T12:40:39;9.30;;;1.75;;
49123;SDS011;48506;48.202;16.274;2024-03-23T12:43:06;4.03;;;1.30;;
49123;SDS011;48506;48.202;16.274;2024-03-23T12:45:36;1.75;;;1.48;;
49123;SDS011;48506;48.202;16.274;2024-03-23T12:48:02;14.25;;;3.45;;
49123;SDS011;48506;48.202;16.274;2024-03-23T12:50:28;8.63;;;3.13;;
49123;SDS011;48506;48.202;16.274;2024-03-23T12:52:53;5.47;;;1.98;;
49123;SDS011;48506;48.202;16.274;2024-03-23T12:55:19;14.52;;;3.15;;
49123;SDS011;48506;48.202;16.274;2024-03-23T12:57:45;1.70;;;1.33;;
49123;SDS011;48506;48.202;16.274;2024-03-23T13:00:12;3.55;;;1.35;;
49123;SDS011;48506;48.202;16.274;2024-03-23T13:02:38;2.00;;;1.50;;
49123;SDS011;48506;48.202;16.274;2024-03-23T13:05:04;4.57;;;1.45;;
49123;SDS011;48506;48.202;16.274;2024-03-23T13:07:31;4.70;;;1.35;;
49123;SDS011;48506;48.202;16.274;2024-03-23T13:09:57;2.72;;;0.93;;
49123;SDS011;48506;48.202;16.274;2024-03-23T13:12:23;5.50;;;0.90;;
49123;SDS011;48506;48.202;16.274;2024-03-23T13:14:49;0.90;;;0.80;;
49123;SDS011;48506;48.202;16.274;2024-03-23T13:17:15;2.75;;;0.80;;
49123;SDS011;48506;48.202;16.274;2024-03-23T13:19:41;2.10;;;0.95;;
49123;SDS011;48506;48.202;16.274;2024-03-23T13:22:07;1.63;;;0.95;;
49123;SDS011;48506;48.202;16.274;2024-03-23T13:24:36;6.00;;;1.10;;
49123;SDS011;48506;48.202;16.274;2024-03-23T13:27:02;3.47;;;1.02;;
49123;SDS011;48506;48.202;16.274;2024-03-23T13:29:31;1.13;;;0.77;;
49123;SDS011;48506;48.202;16.274;2024-03-23T13:31:57;3.42;;;1.00;;
49123;SDS011;48506;48.202;16.274;2024-03-23T13:34:22;3.35;;;0.70;;
49123;SDS011;48506;48.202;16.274;2024-03-23T13:36:48;1.00;;;0.82;;
49123;SDS011;48506;48.202;16.274;2024-03-23T13:39:14;2.75;;;0.88;;
49123;SDS011;48506;48.202;16.274;2024-03-23T13:41:42;2.05;;;0.70;;
49123;SDS011;48506;48.202;16.274;2024-03-23T13:44:12;1.52;;;0.90;;
49123;SDS011;48506;48.202;16.274;2024-03-23T13:46:40;3.55;;;1.02;;
49123;SDS011;48506;48.202;16.274;2024-03-23T13:51:55;2.83;;;1.00;;
49123;SDS011;48506;48.202;16.274;2024-03-23T13:54:26;1.10;;;0.70;;
49123;SDS011;48506;48.202;16.274;2024-03-23T13:56:52;1.52;;;0.82;;
49123;SDS011;48506;48.202;16.274;2024-03-23T13:59:22;2.65;;;0.93;;
49123;SDS011;48506;48.202;16.274;2024-03-23T14:01:49;1.58;;;0.90;;
49123;SDS011;48506;48.202;16.274;2024-03-23T14:04:18;2.40;;;0.77;;
49123;SDS011;48506;48.202;16.274;2024-03-23T14:06:49;2.42;;;0.90;;
49123;SDS011;48506;48.202;16.274;2024-03-23T14:09:15;2.30;;;1.17;;
49123;SDS011;48506;48.202;16.274;2024-03-23T14:11:46;2.38;;;1.00;;
49123;SDS011;48506;48.202;16.274;2024-03-23T14:14:12;2.15;;;1.35;;
49123;SDS011;48506;48.202;16.274;2024-03-23T14:16:38;1.92;;;1.00;;
49123;SDS011;48506;48.202;16.274;2024-03-23T14:19:04;1.25;;;0.80;;
49123;SDS011;48506;48.202;16.274;2024-03-23T14:21:31;1.92;;;1.17;;
49123;SDS011;48506;48.202;16.274;2024-03-23T14:23:57;2.88;;;0.90;;
49123;SDS011;48506;48.202;16.274;2024-03-23T14:26:23;1.20;;;0.90;;
49123;SDS011;48506;48.202;16.274;2024-03-23T14:28:49;1.40;;;0.98;;
49123;SDS011;48506;48.202;16.274;2024-03-23T14:31:15;2.67;;;1.30;;
49123;SDS011;48506;48.202;16.274;2024-03-23T14:33:42;1.58;;;1.30;;
49123;SDS011;48506;48.202;16.274;2024-03-23T14:36:16;1.80;;;1.27;;
49123;SDS011;48506;48.202;16.274;2024-03-23T14:38:50;2.58;;;1.48;;
49123;SDS011;48506;48.202;16.274;2024-03-23T14:41:17;1.80;;;1.55;;
49123;SDS011;48506;48.202;16.274;2024-03-23T14:43:44;3.15;;;1.60;;
49123;SDS011;48506;48.202;16.274;2024-03-23T14:46:14;1.92;;;1.35;;
49123;SDS011;48506;48.202;16.274;2024-03-23T14:48:42;1.92;;;1.40;;
49123;SDS011;48506;48.202;16.274;2024-03-23T14:51:09;2.33;;;1.30;;
49123;SDS011;48506;48.202;16.274;2024-03-23T14:53:39;2.38;;;1.40;;
49123;SDS011;48506;48.202;16.274;2024-03-23T14:56:07;1.75;;;1.00;;
49123;SDS011;48506;48.202;16.274;2024-03-23T14:58:35;1.35;;;1.23;;
49123;SDS011;48506;48.202;16.274;2024-03-23T15:01:02;3.95;;;1.55;;
49123;SDS011;48506;48.202;16.274;2024-03-23T15:03:35;2.08;;;1.02;;
49123;SDS011;48506;48.202;16.274;2024-03-23T15:06:04;2.50;;;1.20;;
49123;SDS011;48506;48.202;16.274;2024-03-23T15:08:31;2.40;;;1.27;;
49123;SDS011;48506;48.202;16.274;2024-03-23T15:11:01;0.77;;;0.77;;
49123;SDS011;48506;48.202;16.274;2024-03-23T15:13:33;2.38;;;1.15;;
49123;SDS011;48506;48.202;16.274;2024-03-23T15:18:29;2.70;;;1.50;;
49123;SDS011;48506;48.202;16.274;2024-03-23T15:20:57;2.97;;;1.52;;
49123;SDS011;48506;48.202;16.274;2024-03-23T15:23:28;2.63;;;1.52;;
49123;SDS011;48506;48.202;16.274;2024-03-23T15:25:55;2.55;;;1.20;;
49123;SDS011;48506;48.202;16.274;2024-03-23T15:28:22;2.70;;;1.10;;
49123;SDS011;48506;48.202;16.274;2024-03-23T15:30:49;1.20;;;1.02;;
49123;SDS011;48506;48.202;16.274;2024-03-23T15:33:15;2.63;;;1.35;;
49123;SDS011;48506;48.202;16.274;2024-03-23T15:35:41;4.95;;;1.50;;
49123;SDS011;48506;48.202;16.274;2024-03-23T15:38:07;1.73;;;1.38;;
49123;SDS011;48506;48.202;16.274;2024-03-23T15:40:34;1.45;;;0.98;;
49123;SDS011;48506;48.202;16.274;2024-03-23T15:43:00;2.25;;;1.60;;
49123;SDS011;48506;48.202;16.274;2024-03-23T15:45:26;2.45;;;1.40;;
49123;SDS011;48506;48.202;16.274;2024-03-23T15:47:52;1.55;;;1.00;;
49123;SDS011;48506;48.202;16.274;2024-03-23T15:50:19;1.92;;;1.25;;